sensor_id;sensor_type;location;lat;lon;timestamp;P1;durP1;ratioP1;P2;durP2;ratioP2
66425;SDS011;53237;46.158;14.604;2023-07-30T00:02:21;2.78;;;2.58;;
66425;SDS011;53237;46.158;14.604;2023-07-30T00:04:47;2.72;;;2.53;;
66425;SDS011;53237;46.158;14.604;2023-07-30T00:07:13;3.03;;;2.83;;
66425;SDS011;53237;46.158;14.604;2023-07-30T00:09:39;3.13;;;2.83;;
66425;SDS011;53237;46.158;14.604;2023-07-30T00:12:06;2.83;;;2.63;;
66425;SDS011;53237;46.158;14.604;2023-07-30T00:14:32;2.70;;;2.50;;
66425;SDS011;53237;46.158;14.604;2023-07-30T00:16:58;2.70;;;2.50;;
66425;SDS011;53237;46.158;14.604;2023-07-30T00:19:24;2.72;;;2.53;;
66425;SDS011;53237;46.158;14.604;2023-07-30T00:21:50;2.85;;;2.65;;
66425;SDS011;53237;46.158;14.604;2023-07-30T00:24:16;3.97;;;2.63;;
66425;SDS011;53237;46.158;14.604;2023-07-30T00:26:42;3.50;;;2.95;;
66425;SDS011;53237;46.158;14.604;2023-07-30T00:29:08;3.28;;;2.97;;
66425;SDS011;53237;46.158;14.604;2023-07-30T00:31:34;2.90;;;2.70;;
66425;SDS011;53237;46.158;14.604;2023-07-30T00:34:00;3.05;;;2.85;;
66425;SDS011;53237;46.158;14.604;2023-07-30T00:36:26;3.35;;;3.05;;
66425;SDS011;53237;46.158;14.604;2023-07-30T00:38:53;4.80;;;3.35;;
66425;SDS011;53237;46.158;14.604;2023-07-30T00:41:18;3.50;;;3.20;;
66425;SDS011;53237;46.158;14.604;2023-07-30T00:43:44;4.15;;;3.75;;
66425;SDS011;53237;46.158;14.604;2023-07-30T00:46:11;7.03;;;4.43;;
66425;SDS011;53237;46.158;14.604;2023-07-30T00:48:37;4.13;;;3.83;;
66425;SDS011;53237;46.158;14.604;2023-07-30T00:51:03;3.45;;;3.15;;
66425;SDS011;53237;46.158;14.604;2023-07-30T00:53:30;3.25;;;2.95;;
66425;SDS011;53237;46.158;14.604;2023-07-30T00:55:56;3.35;;;2.67;;
66425;SDS011;53237;46.158;14.604;2023-07-30T00:58:22;3.17;;;2.80;;
66425;SDS011;53237;46.158;14.604;2023-07-30T01:00:48;3.10;;;2.90;;
66425;SDS011;53237;46.158;14.604;2023-07-30T01:03:15;3.90;;;2.90;;
66425;SDS011;53237;46.158;14.604;2023-07-30T01:05:41;3.47;;;3.17;;
66425;SDS011;53237;46.158;14.604;2023-07-30T01:08:07;3.05;;;2.83;;
66425;SDS011;53237;46.158;14.604;2023-07-30T01:10:33;3.33;;;3.05;;
66425;SDS011;53237;46.158;14.604;2023-07-30T01:13:00;3.42;;;3.10;;
66425;SDS011;53237;46.158;14.604;2023-07-30T01:15:28;3.30;;;3.00;;
66425;SDS011;53237;46.158;14.604;2023-07-30T01:17:54;4.18;;;3.03;;
66425;SDS011;53237;46.158;14.604;2023-07-30T01:20:20;3.30;;;3.10;;
66425;SDS011;53237;46.158;14.604;2023-07-30T01:22:46;3.80;;;3.50;;
66425;SDS011;53237;46.158;14.604;2023-07-30T01:25:13;3.72;;;3.42;;
66425;SDS011;53237;46.158;14.604;2023-07-30T01:27:39;4.97;;;4.13;;
66425;SDS011;53237;46.158;14.604;2023-07-30T01:30:07;4.28;;;3.88;;
66425;SDS011;53237;46.158;14.604;2023-07-30T01:32:34;4.57;;;4.10;;
66425;SDS011;53237;46.158;14.604;2023-07-30T01:35:00;4.60;;;3.72;;
66425;SDS011;53237;46.158;14.604;2023-07-30T01:37:27;5.47;;;4.10;;
66425;SDS011;53237;46.158;14.604;2023-07-30T01:39:53;3.92;;;3.38;;
66425;SDS011;53237;46.158;14.604;2023-07-30T01:42:19;4.65;;;3.47;;
66425;SDS011;53237;46.158;14.604;2023-07-30T01:44:45;5.38;;;3.40;;
66425;SDS011;53237;46.158;14.604;2023-07-30T01:47:11;4.00;;;3.58;;
66425;SDS011;53237;46.158;14.604;2023-07-30T01:49:37;3.80;;;3.47;;
66425;SDS011;53237;46.158;14.604;2023-07-30T01:52:03;5.80;;;3.30;;
66425;SDS011;53237;46.158;14.604;2023-07-30T01:54:29;4.20;;;3.00;;
66425;SDS011;53237;46.158;14.604;2023-07-30T01:56:55;3.35;;;2.80;;
66425;SDS011;53237;46.158;14.604;2023-07-30T01:59:21;3.95;;;2.72;;
66425;SDS011;53237;46.158;14.604;2023-07-30T02:01:48;2.83;;;2.63;;
66425;SDS011;53237;46.158;14.604;2023-07-30T02:04:14;3.85;;;2.90;;
66425;SDS011;53237;46.158;14.604;2023-07-30T02:06:41;4.90;;;2.90;;
66425;SDS011;53237;46.158;14.604;2023-07-30T02:09:07;2.88;;;2.55;;
66425;SDS011;53237;46.158;14.604;2023-07-30T02:11:33;4.40;;;2.72;;
66425;SDS011;53237;46.158;14.604;2023-07-30T02:13:59;2.88;;;2.33;;
66425;SDS011;53237;46.158;14.604;2023-07-30T02:16:25;2.92;;;2.65;;
66425;SDS011;53237;46.158;14.604;2023-07-30T02:18:51;2.50;;;2.30;;
66425;SDS011;53237;46.158;14.604;2023-07-30T02:21:17;3.20;;;2.40;;
66425;SDS011;53237;46.158;14.604;2023-07-30T02:23:43;2.95;;;2.47;;
66425;SDS011;53237;46.158;14.604;2023-07-30T02:26:09;2.38;;;2.22;;
66425;SDS011;53237;46.158;14.604;2023-07-30T02:28:35;2.67;;;2.47;;
66425;SDS011;53237;46.158;14.604;2023-07-30T02:31:01;3.15;;;2.40;;
66425;SDS011;53237;46.158;14.604;2023-07-30T02:33:27;2.40;;;2.20;;
66425;SDS011;53237;46.158;14.604;2023-07-30T02:35:53;2.78;;;2.47;;
66425;SDS011;53237;46.158;14.604;2023-07-30T02:38:19;2.80;;;2.60;;
66425;SDS011;53237;46.158;14.604;2023-07-30T02:40:45;2.45;;;2.20;;
66425;SDS011;53237;46.158;14.604;2023-07-30T02:43:11;2.50;;;2.30;;
66425;SDS011;53237;46.158;14.604;2023-07-30T02:45:38;2.47;;;2.28;;
66425;SDS011;53237;46.158;14.604;2023-07-30T02:48:04;2.60;;;2.40;;
66425;SDS011;53237;46.158;14.604;2023-07-30T02:50:30;2.40;;;2.20;;
66425;SDS011;53237;46.158;14.604;2023-07-30T02:52:56;2.38;;;2.17;;
66425;SDS011;53237;46.158;14.604;2023-07-30T02:55:22;3.90;;;2.53;;
66425;SDS011;53237;46.158;14.604;2023-07-30T02:57:48;2.70;;;2.50;;
66425;SDS011;53237;46.158;14.604;2023-07-30T03:00:14;3.70;;;2.78;;
66425;SDS011;53237;46.158;14.604;2023-07-30T03:02:40;2.72;;;2.53;;
66425;SDS011;53237;46.158;14.604;2023-07-30T03:05:06;3.65;;;2.65;;
66425;SDS011;53237;46.158;14.604;2023-07-30T03:07:32;2.70;;;2.30;;
66425;SDS011;53237;46.158;14.604;2023-07-30T03:09:58;2.47;;;2.28;;
66425;SDS011;53237;46.158;14.604;2023-07-30T03:12:24;3.25;;;2.40;;
66425;SDS011;53237;46.158;14.604;2023-07-30T03:14:50;2.63;;;2.17;;
66425;SDS011;53237;46.158;14.604;2023-07-30T03:17:16;2.80;;;2.13;;
66425;SDS011;53237;46.158;14.604;2023-07-30T03:19:42;2.00;;;1.90;;
66425;SDS011;53237;46.158;14.604;2023-07-30T03:22:08;2.88;;;2.15;;
66425;SDS011;53237;46.158;14.604;2023-07-30T03:24:34;2.40;;;2.20;;
66425;SDS011;53237;46.158;14.604;2023-07-30T03:27:00;2.50;;;2.30;;
66425;SDS011;53237;46.158;14.604;2023-07-30T03:29:26;4.07;;;2.70;;
66425;SDS011;53237;46.158;14.604;2023-07-30T03:31:52;2.60;;;2.40;;
66425;SDS011;53237;46.158;14.604;2023-07-30T03:34:18;2.88;;;2.63;;
66425;SDS011;53237;46.158;14.604;2023-07-30T03:36:44;2.60;;;2.30;;
66425;SDS011;53237;46.158;14.604;2023-07-30T03:39:10;2.47;;;2.28;;
66425;SDS011;53237;46.158;14.604;2023-07-30T03:41:36;2.70;;;2.50;;
66425;SDS011;53237;46.158;14.604;2023-07-30T03:44:02;4.32;;;2.42;;
66425;SDS011;53237;46.158;14.604;2023-07-30T03:46:28;3.10;;;2.25;;
66425;SDS011;53237;46.158;14.604;2023-07-30T03:48:54;3.33;;;2.60;;
66425;SDS011;53237;46.158;14.604;2023-07-30T03:51:20;3.28;;;2.50;;
66425;SDS011;53237;46.158;14.604;2023-07-30T03:53:46;3.05;;;2.08;;
66425;SDS011;53237;46.158;14.604;2023-07-30T03:56:12;2.90;;;1.98;;
66425;SDS011;53237;46.158;14.604;2023-07-30T03:58:38;2.78;;;2.33;;
66425;SDS011;53237;46.158;14.604;2023-07-30T04:01:04;2.13;;;1.88;;
66425;SDS011;53237;46.158;14.604;2023-07-30T04:03:31;2.10;;;1.90;;
66425;SDS011;53237;46.158;14.604;2023-07-30T04:05:57;2.63;;;2.22;;
66425;SDS011;53237;46.158;14.604;2023-07-30T04:08:23;2.10;;;1.90;;
66425;SDS011;53237;46.158;14.604;2023-07-30T04:10:49;2.13;;;2.00;;
66425;SDS011;53237;46.158;14.604;2023-07-30T04:13:15;1.90;;;1.77;;
66425;SDS011;53237;46.158;14.604;2023-07-30T04:15:41;2.20;;;1.75;;
66425;SDS011;53237;46.158;14.604;2023-07-30T04:18:07;1.98;;;1.77;;
66425;SDS011;53237;46.158;14.604;2023-07-30T04:20:33;2.05;;;1.63;;
66425;SDS011;53237;46.158;14.604;2023-07-30T04:22:59;3.70;;;2.10;;
66425;SDS011;53237;46.158;14.604;2023-07-30T04:25:25;2.25;;;1.60;;
66425;SDS011;53237;46.158;14.604;2023-07-30T04:27:51;1.83;;;1.73;;
66425;SDS011;53237;46.158;14.604;2023-07-30T04:30:17;3.47;;;1.90;;
66425;SDS011;53237;46.158;14.604;2023-07-30T04:32:43;2.67;;;1.90;;
66425;SDS011;53237;46.158;14.604;2023-07-30T04:35:09;1.80;;;1.70;;
66425;SDS011;53237;46.158;14.604;2023-07-30T04:37:36;1.88;;;1.75;;
66425;SDS011;53237;46.158;14.604;2023-07-30T04:40:02;2.42;;;1.80;;
66425;SDS011;53237;46.158;14.604;2023-07-30T04:42:28;1.77;;;1.60;;
66425;SDS011;53237;46.158;14.604;2023-07-30T04:44:54;2.50;;;1.75;;
66425;SDS011;53237;46.158;14.604;2023-07-30T04:47:20;2.05;;;1.63;;
66425;SDS011;53237;46.158;14.604;2023-07-30T04:49:46;1.80;;;1.70;;
66425;SDS011;53237;46.158;14.604;2023-07-30T04:52:12;1.85;;;1.55;;
66425;SDS011;53237;46.158;14.604;2023-07-30T04:54:38;3.60;;;1.58;;
66425;SDS011;53237;46.158;14.604;2023-07-30T04:57:04;1.70;;;1.60;;
66425;SDS011;53237;46.158;14.604;2023-07-30T04:59:30;1.67;;;1.52;;
66425;SDS011;53237;46.158;14.604;2023-07-30T05:01:58;1.65;;;1.50;;
66425;SDS011;53237;46.158;14.604;2023-07-30T05:04:24;1.70;;;1.60;;
66425;SDS011;53237;46.158;14.604;2023-07-30T05:06:50;2.08;;;1.83;;
66425;SDS011;53237;46.158;14.604;2023-07-30T05:09:16;2.90;;;1.73;;
66425;SDS011;53237;46.158;14.604;2023-07-30T05:11:42;2.30;;;1.70;;
66425;SDS011;53237;46.158;14.604;2023-07-30T05:14:08;2.17;;;1.77;;
66425;SDS011;53237;46.158;14.604;2023-07-30T05:16:34;1.90;;;1.65;;
66425;SDS011;53237;46.158;14.604;2023-07-30T05:19:01;1.90;;;1.73;;
66425;SDS011;53237;46.158;14.604;2023-07-30T05:21:27;1.95;;;1.52;;
66425;SDS011;53237;46.158;14.604;2023-07-30T05:23:53;2.88;;;1.60;;
66425;SDS011;53237;46.158;14.604;2023-07-30T05:26:19;2.72;;;2.00;;
66425;SDS011;53237;46.158;14.604;2023-07-30T05:28:45;2.35;;;1.90;;
66425;SDS011;53237;46.158;14.604;2023-07-30T05:31:11;2.72;;;2.28;;
66425;SDS011;53237;46.158;14.604;2023-07-30T05:33:37;2.78;;;2.13;;
66425;SDS011;53237;46.158;14.604;2023-07-30T05:36:03;2.63;;;2.05;;
66425;SDS011;53237;46.158;14.604;2023-07-30T05:38:31;3.15;;;2.55;;
66425;SDS011;53237;46.158;14.604;2023-07-30T05:40:56;3.17;;;2.08;;
66425;SDS011;53237;46.158;14.604;2023-07-30T05:43:23;4.25;;;2.22;;
66425;SDS011;53237;46.158;14.604;2023-07-30T05:45:49;2.95;;;2.00;;
66425;SDS011;53237;46.158;14.604;2023-07-30T05:48:15;2.70;;;2.15;;
66425;SDS011;53237;46.158;14.604;2023-07-30T05:50:41;2.05;;;1.83;;
66425;SDS011;53237;46.158;14.604;2023-07-30T05:53:07;2.05;;;1.85;;
66425;SDS011;53237;46.158;14.604;2023-07-30T05:55:32;1.70;;;1.60;;
66425;SDS011;53237;46.158;14.604;2023-07-30T05:57:58;2.47;;;1.80;;
66425;SDS011;53237;46.158;14.604;2023-07-30T06:00:24;2.20;;;2.00;;
66425;SDS011;53237;46.158;14.604;2023-07-30T06:02:50;2.28;;;2.03;;
66425;SDS011;53237;46.158;14.604;2023-07-30T06:05:17;2.22;;;2.00;;
66425;SDS011;53237;46.158;14.604;2023-07-30T06:07:43;2.67;;;2.45;;
66425;SDS011;53237;46.158;14.604;2023-07-30T06:10:09;1.90;;;1.80;;
66425;SDS011;53237;46.158;14.604;2023-07-30T06:12:35;2.15;;;1.95;;
66425;SDS011;53237;46.158;14.604;2023-07-30T06:15:01;2.13;;;1.92;;
66425;SDS011;53237;46.158;14.604;2023-07-30T06:17:27;2.53;;;1.90;;
66425;SDS011;53237;46.158;14.604;2023-07-30T06:19:53;2.00;;;1.73;;
66425;SDS011;53237;46.158;14.604;2023-07-30T06:22:19;1.80;;;1.70;;
66425;SDS011;53237;46.158;14.604;2023-07-30T06:24:45;1.88;;;1.77;;
66425;SDS011;53237;46.158;14.604;2023-07-30T06:27:11;1.90;;;1.80;;
66425;SDS011;53237;46.158;14.604;2023-07-30T06:29:37;2.20;;;2.00;;
66425;SDS011;53237;46.158;14.604;2023-07-30T06:32:03;1.60;;;1.50;;
66425;SDS011;53237;46.158;14.604;2023-07-30T06:34:29;1.90;;;1.80;;
66425;SDS011;53237;46.158;14.604;2023-07-30T06:36:55;1.70;;;1.60;;
66425;SDS011;53237;46.158;14.604;2023-07-30T06:39:21;1.70;;;1.60;;
66425;SDS011;53237;46.158;14.604;2023-07-30T06:41:47;1.40;;;1.40;;
66425;SDS011;53237;46.158;14.604;2023-07-30T06:44:14;1.55;;;1.45;;
66425;SDS011;53237;46.158;14.604;2023-07-30T06:46:41;1.17;;;1.17;;
66425;SDS011;53237;46.158;14.604;2023-07-30T06:49:07;1.67;;;1.58;;
66425;SDS011;53237;46.158;14.604;2023-07-30T06:51:33;2.30;;;2.10;;
66425;SDS011;53237;46.158;14.604;2023-07-30T06:53:59;1.80;;;1.70;;
66425;SDS011;53237;46.158;14.604;2023-07-30T06:56:25;2.45;;;1.80;;
66425;SDS011;53237;46.158;14.604;2023-07-30T06:58:51;1.80;;;1.70;;
66425;SDS011;53237;46.158;14.604;2023-07-30T07:01:16;1.98;;;1.55;;
66425;SDS011;53237;46.158;14.604;2023-07-30T07:03:42;1.58;;;1.48;;
66425;SDS011;53237;46.158;14.604;2023-07-30T07:06:08;2.47;;;1.48;;
66425;SDS011;53237;46.158;14.604;2023-07-30T07:08:35;2.97;;;1.60;;
66425;SDS011;53237;46.158;14.604;2023-07-30T07:11:00;3.00;;;1.55;;
66425;SDS011;53237;46.158;14.604;2023-07-30T07:13:26;1.92;;;1.60;;
66425;SDS011;53237;46.158;14.604;2023-07-30T07:15:52;1.92;;;1.73;;
66425;SDS011;53237;46.158;14.604;2023-07-30T07:18:18;1.50;;;1.33;;
66425;SDS011;53237;46.158;14.604;2023-07-30T07:20:45;2.83;;;2.05;;
66425;SDS011;53237;46.158;14.604;2023-07-30T07:23:11;1.80;;;1.50;;
66425;SDS011;53237;46.158;14.604;2023-07-30T07:25:36;1.70;;;1.42;;
66425;SDS011;53237;46.158;14.604;2023-07-30T07:28:03;1.60;;;1.50;;
66425;SDS011;53237;46.158;14.604;2023-07-30T07:30:28;1.42;;;1.33;;
66425;SDS011;53237;46.158;14.604;2023-07-30T07:32:54;1.40;;;1.30;;
66425;SDS011;53237;46.158;14.604;2023-07-30T07:35:21;1.30;;;1.20;;
66425;SDS011;53237;46.158;14.604;2023-07-30T07:37:47;1.75;;;1.60;;
66425;SDS011;53237;46.158;14.604;2023-07-30T07:40:13;1.60;;;1.50;;
66425;SDS011;53237;46.158;14.604;2023-07-30T07:42:39;2.08;;;1.73;;
66425;SDS011;53237;46.158;14.604;2023-07-30T07:45:05;1.50;;;1.40;;
66425;SDS011;53237;46.158;14.604;2023-07-30T07:47:32;1.38;;;1.27;;
66425;SDS011;53237;46.158;14.604;2023-07-30T07:49:58;1.50;;;1.40;;
66425;SDS011;53237;46.158;14.604;2023-07-30T07:52:24;4.40;;;1.40;;
66425;SDS011;53237;46.158;14.604;2023-07-30T07:54:50;4.35;;;1.80;;
66425;SDS011;53237;46.158;14.604;2023-07-30T07:57:16;1.40;;;1.30;;
66425;SDS011;53237;46.158;14.604;2023-07-30T07:59:42;1.55;;;1.45;;
66425;SDS011;53237;46.158;14.604;2023-07-30T08:02:10;1.30;;;1.10;;
66425;SDS011;53237;46.158;14.604;2023-07-30T08:04:36;1.58;;;1.48;;
66425;SDS011;53237;46.158;14.604;2023-07-30T08:07:02;2.25;;;1.30;;
66425;SDS011;53237;46.158;14.604;2023-07-30T08:09:29;1.55;;;1.45;;
66425;SDS011;53237;46.158;14.604;2023-07-30T08:11:55;1.48;;;1.30;;
66425;SDS011;53237;46.158;14.604;2023-07-30T08:14:21;1.88;;;1.40;;
66425;SDS011;53237;46.158;14.604;2023-07-30T08:16:47;1.60;;;1.50;;
66425;SDS011;53237;46.158;14.604;2023-07-30T08:19:13;1.30;;;1.20;;
66425;SDS011;53237;46.158;14.604;2023-07-30T08:21:39;1.23;;;1.20;;
66425;SDS011;53237;46.158;14.604;2023-07-30T08:24:05;1.40;;;1.30;;
66425;SDS011;53237;46.158;14.604;2023-07-30T08:26:31;1.30;;;1.20;;
66425;SDS011;53237;46.158;14.604;2023-07-30T08:28:57;1.73;;;1.63;;
66425;SDS011;53237;46.158;14.604;2023-07-30T08:31:23;1.67;;;1.42;;
66425;SDS011;53237;46.158;14.604;2023-07-30T08:33:49;1.42;;;1.33;;
66425;SDS011;53237;46.158;14.604;2023-07-30T08:36:15;1.80;;;1.40;;
66425;SDS011;53237;46.158;14.604;2023-07-30T08:38:41;1.35;;;1.13;;
66425;SDS011;53237;46.158;14.604;2023-07-30T08:41:08;1.15;;;1.05;;
66425;SDS011;53237;46.158;14.604;2023-07-30T08:43:34;2.05;;;1.25;;
66425;SDS011;53237;46.158;14.604;2023-07-30T08:46:00;1.35;;;1.25;;
66425;SDS011;53237;46.158;14.604;2023-07-30T08:48:26;1.30;;;1.20;;
66425;SDS011;53237;46.158;14.604;2023-07-30T08:50:55;1.95;;;1.25;;
66425;SDS011;53237;46.158;14.604;2023-07-30T08:53:22;1.30;;;1.20;;
66425;SDS011;53237;46.158;14.604;2023-07-30T08:55:48;1.73;;;1.52;;
66425;SDS011;53237;46.158;14.604;2023-07-30T08:58:14;3.53;;;1.40;;
66425;SDS011;53237;46.158;14.604;2023-07-30T09:00:42;1.77;;;1.17;;
66425;SDS011;53237;46.158;14.604;2023-07-30T09:03:08;1.60;;;1.20;;
66425;SDS011;53237;46.158;14.604;2023-07-30T09:05:34;1.83;;;1.20;;
66425;SDS011;53237;46.158;14.604;2023-07-30T09:08:00;1.20;;;1.02;;
66425;SDS011;53237;46.158;14.604;2023-07-30T09:10:26;1.30;;;1.10;;
66425;SDS011;53237;46.158;14.604;2023-07-30T09:12:53;1.52;;;1.20;;
66425;SDS011;53237;46.158;14.604;2023-07-30T09:15:20;1.20;;;1.10;;
66425;SDS011;53237;46.158;14.604;2023-07-30T09:17:54;0.98;;;0.98;;
66425;SDS011;53237;46.158;14.604;2023-07-30T09:20:21;0.93;;;0.90;;
66425;SDS011;53237;46.158;14.604;2023-07-30T09:22:47;0.70;;;0.70;;
66425;SDS011;53237;46.158;14.604;2023-07-30T09:25:17;1.20;;;1.10;;
66425;SDS011;53237;46.158;14.604;2023-07-30T09:27:47;1.00;;;1.00;;
66425;SDS011;53237;46.158;14.604;2023-07-30T09:30:13;1.95;;;0.93;;
66425;SDS011;53237;46.158;14.604;2023-07-30T09:32:39;0.90;;;0.90;;
66425;SDS011;53237;46.158;14.604;2023-07-30T09:35:09;1.00;;;1.00;;
66425;SDS011;53237;46.158;14.604;2023-07-30T09:37:36;0.95;;;0.95;;
66425;SDS011;53237;46.158;14.604;2023-07-30T09:40:04;0.80;;;0.80;;
66425;SDS011;53237;46.158;14.604;2023-07-30T09:42:30;0.90;;;0.90;;
66425;SDS011;53237;46.158;14.604;2023-07-30T09:45:00;0.90;;;0.90;;
66425;SDS011;53237;46.158;14.604;2023-07-30T09:47:26;0.95;;;0.88;;
66425;SDS011;53237;46.158;14.604;2023-07-30T09:49:53;1.02;;;1.02;;
66425;SDS011;53237;46.158;14.604;2023-07-30T09:52:20;1.10;;;1.00;;
66425;SDS011;53237;46.158;14.604;2023-07-30T09:54:46;0.90;;;0.90;;
66425;SDS011;53237;46.158;14.604;2023-07-30T09:57:14;1.15;;;0.95;;
66425;SDS011;53237;46.158;14.604;2023-07-30T09:59:40;1.10;;;1.00;;
66425;SDS011;53237;46.158;14.604;2023-07-30T10:02:07;1.02;;;0.93;;
66425;SDS011;53237;46.158;14.604;2023-07-30T10:04:34;0.80;;;0.80;;
66425;SDS011;53237;46.158;14.604;2023-07-30T10:07:03;1.10;;;0.93;;
66425;SDS011;53237;46.158;14.604;2023-07-30T10:09:33;1.17;;;1.07;;
66425;SDS011;53237;46.158;14.604;2023-07-30T10:12:00;0.80;;;0.80;;
66425;SDS011;53237;46.158;14.604;2023-07-30T10:14:26;0.82;;;0.80;;
66425;SDS011;53237;46.158;14.604;2023-07-30T10:16:59;0.70;;;0.70;;
66425;SDS011;53237;46.158;14.604;2023-07-30T10:19:25;0.88;;;0.65;;
66425;SDS011;53237;46.158;14.604;2023-07-30T10:21:53;1.00;;;0.90;;
66425;SDS011;53237;46.158;14.604;2023-07-30T10:24:19;0.70;;;0.70;;
66425;SDS011;53237;46.158;14.604;2023-07-30T10:26:45;0.70;;;0.70;;
66425;SDS011;53237;46.158;14.604;2023-07-30T10:29:15;0.82;;;0.82;;
66425;SDS011;53237;46.158;14.604;2023-07-30T10:31:42;0.77;;;0.77;;
66425;SDS011;53237;46.158;14.604;2023-07-30T10:34:09;0.80;;;0.80;;
66425;SDS011;53237;46.158;14.604;2023-07-30T10:36:48;0.80;;;0.63;;
66425;SDS011;53237;46.158;14.604;2023-07-30T10:39:16;0.90;;;0.90;;
66425;SDS011;53237;46.158;14.604;2023-07-30T10:41:43;0.70;;;0.70;;
66425;SDS011;53237;46.158;14.604;2023-07-30T10:44:16;0.90;;;0.90;;
66425;SDS011;53237;46.158;14.604;2023-07-30T10:46:43;0.70;;;0.70;;
66425;SDS011;53237;46.158;14.604;2023-07-30T10:49:09;0.82;;;0.80;;
66425;SDS011;53237;46.158;14.604;2023-07-30T10:51:37;0.75;;;0.75;;
66425;SDS011;53237;46.158;14.604;2023-07-30T10:54:05;0.90;;;0.90;;
66425;SDS011;53237;46.158;14.604;2023-07-30T10:56:32;0.80;;;0.80;;
66425;SDS011;53237;46.158;14.604;2023-07-30T10:59:00;0.82;;;0.80;;
66425;SDS011;53237;46.158;14.604;2023-07-30T11:01:26;0.80;;;0.80;;
66425;SDS011;53237;46.158;14.604;2023-07-30T11:03:52;0.90;;;0.80;;
66425;SDS011;53237;46.158;14.604;2023-07-30T11:06:25;0.70;;;0.70;;
66425;SDS011;53237;46.158;14.604;2023-07-30T11:08:51;0.80;;;0.80;;
66425;SDS011;53237;46.158;14.604;2023-07-30T11:11:17;0.82;;;0.82;;
66425;SDS011;53237;46.158;14.604;2023-07-30T11:13:44;1.10;;;1.00;;
66425;SDS011;53237;46.158;14.604;2023-07-30T11:16:14;0.80;;;0.80;;
66425;SDS011;53237;46.158;14.604;2023-07-30T11:18:40;0.98;;;0.90;;
66425;SDS011;53237;46.158;14.604;2023-07-30T11:21:07;1.10;;;0.80;;
66425;SDS011;53237;46.158;14.604;2023-07-30T11:23:34;0.60;;;0.60;;
66425;SDS011;53237;46.158;14.604;2023-07-30T11:26:04;1.70;;;0.70;;
66425;SDS011;53237;46.158;14.604;2023-07-30T11:28:31;0.68;;;0.68;;
66425;SDS011;53237;46.158;14.604;2023-07-30T11:30:58;0.70;;;0.70;;
66425;SDS011;53237;46.158;14.604;2023-07-30T11:33:25;1.02;;;0.80;;
66425;SDS011;53237;46.158;14.604;2023-07-30T11:35:51;0.75;;;0.68;;
66425;SDS011;53237;46.158;14.604;2023-07-30T11:38:17;0.93;;;0.90;;
66425;SDS011;53237;46.158;14.604;2023-07-30T11:40:45;0.80;;;0.80;;
66425;SDS011;53237;46.158;14.604;2023-07-30T11:43:11;0.68;;;0.68;;
66425;SDS011;53237;46.158;14.604;2023-07-30T11:45:37;1.20;;;0.80;;
66425;SDS011;53237;46.158;14.604;2023-07-30T11:48:07;0.65;;;0.60;;
66425;SDS011;53237;46.158;14.604;2023-07-30T11:53:00;0.70;;;0.70;;
66425;SDS011;53237;46.158;14.604;2023-07-30T11:55:27;0.57;;;0.57;;
66425;SDS011;53237;46.158;14.604;2023-07-30T11:58:02;0.80;;;0.80;;
66425;SDS011;53237;46.158;14.604;2023-07-30T12:00:28;0.80;;;0.80;;
66425;SDS011;53237;46.158;14.604;2023-07-30T12:02:56;1.02;;;0.70;;
66425;SDS011;53237;46.158;14.604;2023-07-30T12:05:31;0.80;;;0.80;;
66425;SDS011;53237;46.158;14.604;2023-07-30T12:07:58;0.80;;;0.80;;
66425;SDS011;53237;46.158;14.604;2023-07-30T12:10:27;0.80;;;0.80;;
66425;SDS011;53237;46.158;14.604;2023-07-30T12:12:53;0.70;;;0.70;;
66425;SDS011;53237;46.158;14.604;2023-07-30T12:15:19;0.95;;;0.80;;
66425;SDS011;53237;46.158;14.604;2023-07-30T12:17:47;1.17;;;1.17;;
66425;SDS011;53237;46.158;14.604;2023-07-30T12:20:13;0.90;;;0.90;;
66425;SDS011;53237;46.158;14.604;2023-07-30T12:22:39;0.60;;;0.60;;
66425;SDS011;53237;46.158;14.604;2023-07-30T12:25:07;0.68;;;0.68;;
66425;SDS011;53237;46.158;14.604;2023-07-30T12:27:35;0.90;;;0.90;;
66425;SDS011;53237;46.158;14.604;2023-07-30T12:30:01;0.70;;;0.70;;
66425;SDS011;53237;46.158;14.604;2023-07-30T12:32:27;2.05;;;0.82;;
66425;SDS011;53237;46.158;14.604;2023-07-30T12:34:54;0.70;;;0.70;;
66425;SDS011;53237;46.158;14.604;2023-07-30T12:37:20;0.90;;;0.90;;
66425;SDS011;53237;46.158;14.604;2023-07-30T12:39:46;0.50;;;0.50;;
66425;SDS011;53237;46.158;14.604;2023-07-30T12:42:12;0.98;;;0.90;;
66425;SDS011;53237;46.158;14.604;2023-07-30T12:44:38;0.80;;;0.80;;
66425;SDS011;53237;46.158;14.604;2023-07-30T12:47:04;0.85;;;0.85;;
66425;SDS011;53237;46.158;14.604;2023-07-30T12:49:30;0.90;;;0.90;;
66425;SDS011;53237;46.158;14.604;2023-07-30T12:51:56;1.38;;;0.80;;
66425;SDS011;53237;46.158;14.604;2023-07-30T12:54:22;0.70;;;0.70;;
66425;SDS011;53237;46.158;14.604;2023-07-30T12:56:48;0.77;;;0.70;;
66425;SDS011;53237;46.158;14.604;2023-07-30T12:59:14;0.95;;;0.95;;
66425;SDS011;53237;46.158;14.604;2023-07-30T13:01:40;2.13;;;0.88;;
66425;SDS011;53237;46.158;14.604;2023-07-30T13:04:06;0.90;;;0.90;;
66425;SDS011;53237;46.158;14.604;2023-07-30T13:06:32;0.80;;;0.80;;
66425;SDS011;53237;46.158;14.604;2023-07-30T13:08:58;0.75;;;0.75;;
66425;SDS011;53237;46.158;14.604;2023-07-30T13:11:24;0.75;;;0.68;;
66425;SDS011;53237;46.158;14.604;2023-07-30T13:13:50;0.70;;;0.70;;
66425;SDS011;53237;46.158;14.604;2023-07-30T13:16:16;0.73;;;0.73;;
66425;SDS011;53237;46.158;14.604;2023-07-30T13:18:42;0.70;;;0.68;;
66425;SDS011;53237;46.158;14.604;2023-07-30T13:21:08;1.10;;;1.00;;
66425;SDS011;53237;46.158;14.604;2023-07-30T13:23:34;0.70;;;0.70;;
66425;SDS011;53237;46.158;14.604;2023-07-30T13:26:00;0.52;;;0.52;;
66425;SDS011;53237;46.158;14.604;2023-07-30T13:28:28;0.70;;;0.70;;
66425;SDS011;53237;46.158;14.604;2023-07-30T13:30:54;0.70;;;0.70;;
66425;SDS011;53237;46.158;14.604;2023-07-30T13:33:21;0.90;;;0.80;;
66425;SDS011;53237;46.158;14.604;2023-07-30T13:35:47;1.67;;;0.80;;
66425;SDS011;53237;46.158;14.604;2023-07-30T13:38:13;0.82;;;0.70;;
66425;SDS011;53237;46.158;14.604;2023-07-30T13:40:39;0.70;;;0.70;;
66425;SDS011;53237;46.158;14.604;2023-07-30T13:43:05;0.55;;;0.55;;
66425;SDS011;53237;46.158;14.604;2023-07-30T13:45:31;0.60;;;0.60;;
66425;SDS011;53237;46.158;14.604;2023-07-30T13:47:57;0.50;;;0.50;;
66425;SDS011;53237;46.158;14.604;2023-07-30T13:50:23;1.00;;;0.85;;
66425;SDS011;53237;46.158;14.604;2023-07-30T13:52:49;0.80;;;0.80;;
66425;SDS011;53237;46.158;14.604;2023-07-30T13:55:15;0.50;;;0.50;;
66425;SDS011;53237;46.158;14.604;2023-07-30T13:57:41;0.65;;;0.65;;
66425;SDS011;53237;46.158;14.604;2023-07-30T14:00:08;0.77;;;0.77;;
66425;SDS011;53237;46.158;14.604;2023-07-30T14:02:34;0.70;;;0.70;;
66425;SDS011;53237;46.158;14.604;2023-07-30T14:05:00;0.70;;;0.70;;
66425;SDS011;53237;46.158;14.604;2023-07-30T14:07:26;0.70;;;0.70;;
66425;SDS011;53237;46.158;14.604;2023-07-30T14:09:52;0.60;;;0.60;;
66425;SDS011;53237;46.158;14.604;2023-07-30T14:12:18;0.88;;;0.85;;
66425;SDS011;53237;46.158;14.604;2023-07-30T14:14:44;0.60;;;0.60;;
66425;SDS011;53237;46.158;14.604;2023-07-30T14:17:10;0.57;;;0.57;;
66425;SDS011;53237;46.158;14.604;2023-07-30T14:19:36;0.85;;;0.85;;
66425;SDS011;53237;46.158;14.604;2023-07-30T14:22:02;1.00;;;0.80;;
66425;SDS011;53237;46.158;14.604;2023-07-30T14:24:28;1.00;;;0.80;;
66425;SDS011;53237;46.158;14.604;2023-07-30T14:26:54;0.75;;;0.75;;
66425;SDS011;53237;46.158;14.604;2023-07-30T14:29:20;0.55;;;0.55;;
66425;SDS011;53237;46.158;14.604;2023-07-30T14:31:46;0.82;;;0.82;;